Barrow, AK

7:19 AM AKDT on June 23, 2017 (GMT -0800)
Wiley Post-Will Rogers Memorial | | Change Station

Elev 43 ft 71.29 °N, 156.77 °W | Updated 26 minutes ago

Mostly Cloudy
Mostly Cloudy
45 °F
Feels Like 39 °F
N
12
Wind Variable Wind from South

Today
High -- | Low -- °F
--% Chance of Precip.
Yesterday
High -- | Low -- °F
Precip. -- in
Pressure 30.01 in
Visibility 10.0 miles
Clouds Few 4400 ft
Mostly Cloudy 10000 ft
Windchill 39 °F
Dew Point 42 °F
Humidity 90%
Rainfall 0.00 in
Snow Depth Not available.
2:00 PM 2:00 PM
Waning Crescent, 0% visible
METAR PABR 231453Z 18010KT 10SM FEW044 BKN100 07/06 A3001 RMK AO2 SLP162 T00720056 58016
Pressure 30.01 in
Visibility 10.0 miles
Clouds Few 4400 ft
Mostly Cloudy 10000 ft
Windchill 39 °F
Dew Point 42 °F
Humidity 90%
Rainfall 0.00 in
Snow Depth Not available.
2:00 PM 2:00 PM
Waning Crescent, 0% visible
METAR PABR 231453Z 18010KT 10SM FEW044 BKN100 07/06 A3001 RMK AO2 SLP162 T00720056 58016

Get Severe Weather Alerts

Thanks for signing up!

Be on the lookout for a verification email in your inbox.

You'll start receiving the daily forecast at 6 AM.

×

10-Day Weather Forecast

Almanac

Astronomy

Jun. 23, 2017 Rise Set
Actual Time
Civil Twilight
Nautical Twilight
Astronomical Twilight
Moon
Length of Visible Light
Length of Day
Tomorrow will be .
, % of the Moon is Illuminated

Today's Extremes

State Highs State Lows

Community

WunderPhotos

Category 6

Welcome to Category 6. This is the collective home for Weather Underground's featured writeups by Dr. Jeff Masters (right), Bob Henson (left), Chris Burt, and other regular contributors.

Nearby

Air Quality

  Air Quality AQ Index Pollutant
Not available.

Snow Depth

Station Depth Elevation

Earthquake Activity

City Distance Mag. Time & Date
Minimum magnitude displayed is 2.5.

Coastal Water Temperatures

Place Temperature

Stations

Nearby Weather Stations

Station Location Temp. Windchill Dew Point Humidity Wind Precip. Elev Updated Type
                   

Watches & Warnings

There are currently no watches in effect.